Time;durP1;ratioP1;P1;durP2;ratioP2;P2;SDS_P1;SDS_P2;PMS_P1;PMS_P2;Temp;Humidity;BMP_temperature;BMP_pressure;BME280_temperature;BME280_humidity;BME280_pressure;Samples;Min_cycle;Max_cycle;Signal;HPM_P1;HPM_P2
2023/02/17 00:02:15;;;;;;;28.92;19.80;;;9.60;99.90;;;;;;4992162;28;20096;-71
2023/02/17 00:04:42;;;;;;;32.60;20.92;;;9.60;99.90;;;;;;4972939;28;20100;-72
2023/02/17 00:07:08;;;;;;;34.13;22.10;;;9.60;99.90;;;;;;4991672;28;20394;-71
2023/02/17 00:09:35;;;;;;;38.17;23.60;;;9.60;99.90;;;;;;4990358;28;20037;-72
2023/02/17 00:12:01;;;;;;;35.92;23.42;;;9.60;99.90;;;;;;4992035;28;20538;-72
2023/02/17 00:14:26;;;;;;;38.10;23.98;;;9.60;99.90;;;;;;4975924;28;20113;-71
2023/02/17 00:16:52;;;;;;;38.55;24.63;;;9.60;99.90;;;;;;4990601;28;20089;-68
2023/02/17 00:19:24;;;;;;;49.55;26.50;;;9.70;99.90;;;;;;4989418;28;20512;-68
2023/02/17 00:21:52;;;;;;;50.45;28.55;;;9.60;99.90;;;;;;5004444;28;20052;-67
2023/02/17 00:24:17;;;;;;;46.65;27.90;;;9.60;99.90;;;;;;4990640;28;20053;-68
2023/02/17 00:26:43;;;;;;;55.40;29.75;;;9.60;99.90;;;;;;4991047;28;20044;-68
2023/02/17 00:29:09;;;;;;;50.92;28.27;;;9.60;99.90;;;;;;4990590;28;20034;-67
2023/02/17 00:31:35;;;;;;;45.08;28.42;;;9.60;99.90;;;;;;4991971;28;20416;-67
2023/02/17 00:34:01;;;;;;;49.00;29.95;;;9.60;99.90;;;;;;4975389;28;20056;-68
2023/02/17 00:36:27;;;;;;;56.13;31.92;;;9.60;99.90;;;;;;4989554;28;20034;-68
2023/02/17 00:38:55;;;;;;;52.13;30.23;;;9.70;99.90;;;;;;4990174;28;20042;-67
2023/02/17 00:41:21;;;;;;;46.15;29.05;;;9.60;99.90;;;;;;4990615;28;20042;-68
2023/02/17 00:43:47;;;;;;;56.08;31.77;;;9.60;99.90;;;;;;4994428;28;20046;-67
2023/02/17 00:46:14;;;;;;;56.38;32.17;;;9.70;99.90;;;;;;4995710;28;20517;-68
2023/02/17 00:48:40;;;;;;;55.10;32.58;;;9.70;99.90;;;;;;4995080;28;20045;-70
2023/02/17 00:51:06;;;;;;;57.75;32.67;;;9.60;99.90;;;;;;4993720;28;20428;-68
2023/02/17 00:53:32;;;;;;;56.58;32.25;;;9.70;99.90;;;;;;4995845;28;20030;-67
2023/02/17 00:55:58;;;;;;;55.75;32.70;;;9.70;99.90;;;;;;4995749;28;20671;-68
2023/02/17 00:58:23;;;;;;;65.60;35.88;;;9.70;99.90;;;;;;4995813;28;20053;-68
2023/02/17 01:00:49;;;;;;;57.72;33.38;;;9.70;99.90;;;;;;4992491;28;20067;-67
2023/02/17 01:03:16;;;;;;;58.03;34.47;;;9.60;99.90;;;;;;4979044;28;20128;-68
2023/02/17 01:05:44;;;;;;;60.90;35.72;;;9.70;99.90;;;;;;4995747;28;20108;-67
2023/02/17 01:08:10;;;;;;;57.40;35.78;;;9.70;99.90;;;;;;4978029;28;20037;-67
2023/02/17 01:10:41;;;;;;;61.30;36.42;;;9.70;99.90;;;;;;4978590;28;20052;-67
2023/02/17 01:13:07;;;;;;;58.58;36.78;;;9.70;99.90;;;;;;4994476;28;20489;-68
2023/02/17 01:15:38;;;;;;;55.97;36.72;;;9.70;99.90;;;;;;4995716;28;20124;-68
2023/02/17 01:18:04;;;;;;;65.07;38.15;;;9.70;99.90;;;;;;5009766;28;20041;-68
2023/02/17 01:20:33;;;;;;;62.67;38.58;;;9.70;99.90;;;;;;4994464;28;20112;-68
2023/02/17 01:22:59;;;;;;;62.72;37.95;;;9.70;99.90;;;;;;4986743;28;20049;-68
2023/02/17 01:25:25;;;;;;;52.72;36.30;;;9.70;99.90;;;;;;4978893;28;20157;-68
2023/02/17 01:27:51;;;;;;;62.83;37.05;;;9.70;99.90;;;;;;4994124;28;20042;-68
2023/02/17 01:30:17;;;;;;;60.25;37.28;;;9.70;99.90;;;;;;4994101;28;20061;-68
2023/02/17 01:32:42;;;;;;;56.88;35.63;;;9.70;99.90;;;;;;4992281;28;20038;-67
2023/02/17 01:35:08;;;;;;;59.58;38.13;;;9.70;99.90;;;;;;5007692;28;20083;-68
2023/02/17 01:37:34;;;;;;;57.15;37.08;;;9.70;99.90;;;;;;4992080;28;20498;-69
2023/02/17 01:40:00;;;;;;;54.90;35.58;;;9.70;99.90;;;;;;4973128;28;20068;-68
2023/02/17 01:42:25;;;;;;;56.63;36.97;;;9.70;99.90;;;;;;4994372;28;20705;-68
2023/02/17 01:45:16;;;;;;;50.53;35.80;;;9.70;99.90;;;;;;4976846;28;20037;-68
2023/02/17 01:47:58;;;;;;;53.08;36.58;;;9.70;99.90;;;;;;4992966;28;20048;-68
2023/02/17 01:50:29;;;;;;;55.10;36.10;;;9.70;99.90;;;;;;4993528;28;20125;-69
2023/02/17 01:52:56;;;;;;;54.20;36.95;;;9.70;99.90;;;;;;4993941;28;20668;-68
2023/02/17 01:55:24;;;;;;;56.63;37.25;;;9.70;99.90;;;;;;5009804;28;20033;-68
2023/02/17 01:57:52;;;;;;;54.28;34.80;;;9.70;99.90;;;;;;5011199;28;20037;-68
2023/02/17 02:00:20;;;;;;;47.85;35.33;;;9.70;99.90;;;;;;4990639;28;20038;-68
2023/02/17 02:02:48;;;;;;;52.65;36.83;;;9.80;99.90;;;;;;4989362;28;20041;-68
2023/02/17 02:05:15;;;;;;;45.40;32.17;;;9.70;99.90;;;;;;5006243;28;20137;-68
2023/02/17 02:07:43;;;;;;;51.97;34.42;;;9.70;99.90;;;;;;4994191;28;20073;-69
2023/02/17 02:10:11;;;;;;;48.70;34.53;;;9.70;99.90;;;;;;4977834;28;20044;-68
2023/02/17 02:12:39;;;;;;;45.70;33.13;;;9.70;99.90;;;;;;4978241;28;20121;-66
2023/02/17 02:15:10;;;;;;;42.75;32.10;;;9.70;99.90;;;;;;4977163;28;20044;-65
2023/02/17 02:18:03;;;;;;;50.20;33.72;;;9.80;99.90;;;;;;4992071;28;20065;-66
2023/02/17 02:20:44;;;;;;;45.47;32.22;;;9.80;99.90;;;;;;5006616;28;20069;-66
2023/02/17 02:23:29;;;;;;;45.13;33.20;;;9.70;99.90;;;;;;4992544;28;20040;-67
2023/02/17 02:26:25;;;;;;;46.88;31.77;;;9.70;99.90;;;;;;4987539;28;20235;-67
2023/02/17 02:28:57;;;;;;;47.33;32.08;;;9.70;99.90;;;;;;4991445;28;20556;-67
2023/02/17 02:31:44;;;;;;;48.25;31.17;;;9.70;99.90;;;;;;5009120;28;20030;-67
2023/02/17 02:34:35;;;;;;;49.97;34.58;;;9.70;99.90;;;;;;4971759;28;20041;-67
2023/02/17 02:37:11;;;;;;;51.70;32.78;;;9.70;99.90;;;;;;4991484;28;20447;-67
2023/02/17 02:39:45;;;;;;;55.00;33.35;;;9.70;99.90;;;;;;4990017;28;20072;-67
2023/02/17 02:42:15;;;;;;;50.88;33.50;;;9.70;99.90;;;;;;4989810;28;20077;-67
2023/02/17 02:44:41;;;;;;;54.10;36.03;;;9.70;99.90;;;;;;4993734;28;20053;-68
2023/02/17 02:47:43;;;;;;;54.65;35.85;;;9.70;99.90;;;;;;4994649;28;20045;-67
2023/02/17 02:50:12;;;;;;;54.28;35.30;;;9.80;99.90;;;;;;4993568;28;20038;-67
2023/02/17 02:53:00;;;;;;;60.30;37.05;;;9.80;99.90;;;;;;5011376;28;20116;-68
2023/02/17 02:55:45;;;;;;;60.00;37.38;;;9.70;99.90;;;;;;5010570;28;20041;-68
2023/02/17 02:58:21;;;;;;;59.47;36.67;;;9.70;99.90;;;;;;5009435;28;20045;-67
2023/02/17 03:00:46;;;;;;;62.75;38.50;;;9.70;99.90;;;;;;4993649;28;20049;-67
2023/02/17 03:03:47;;;;;;;58.60;38.08;;;9.70;99.90;;;;;;4993517;28;20046;-67
2023/02/17 03:06:28;;;;;;;65.68;39.08;;;9.70;99.90;;;;;;4967186;28;20533;-67
2023/02/17 03:09:01;;;;;;;62.70;37.72;;;9.80;99.90;;;;;;4970006;28;20466;-67
2023/02/17 03:11:33;;;;;;;69.18;40.63;;;9.70;99.90;;;;;;4989032;28;20549;-67
2023/02/17 03:14:06;;;;;;;61.55;39.00;;;9.70;99.90;;;;;;4974542;28;20104;-67
2023/02/17 03:16:33;;;;;;;61.00;37.95;;;9.70;99.90;;;;;;4956803;28;20057;-67
2023/02/17 03:18:59;;;;;;;61.40;38.83;;;9.70;99.90;;;;;;4974063;28;20046;-67
2023/02/17 03:21:33;;;;;;;56.33;37.58;;;9.70;99.90;;;;;;4972772;28;20765;-68
2023/02/17 03:23:59;;;;;;;60.88;38.00;;;9.70;99.90;;;;;;4947116;28;20047;-67
2023/02/17 03:26:25;;;;;;;60.58;38.60;;;9.70;99.90;;;;;;4972967;28;20502;-68
2023/02/17 03:28:51;;;;;;;59.42;37.97;;;9.70;99.90;;;;;;4971903;28;20042;-68
2023/02/17 03:31:16;;;;;;;60.72;39.80;;;9.70;99.90;;;;;;4967782;28;20034;-67
2023/02/17 03:33:42;;;;;;;62.10;39.10;;;9.70;99.90;;;;;;4972476;28;20077;-67
2023/02/17 03:36:08;;;;;;;57.75;38.22;;;9.70;99.90;;;;;;4987989;28;20406;-68
2023/02/17 03:38:33;;;;;;;64.90;39.72;;;9.70;99.90;;;;;;4988281;28;20066;-68
2023/02/17 03:40:59;;;;;;;62.25;39.33;;;9.70;99.90;;;;;;4970616;28;20049;-67
2023/02/17 03:43:25;;;;;;;56.72;39.03;;;9.70;99.90;;;;;;4971247;28;20046;-66
2023/02/17 03:45:50;;;;;;;55.35;38.30;;;9.70;99.90;;;;;;4972212;28;20034;-67
2023/02/17 03:48:16;;;;;;;60.60;39.28;;;9.70;99.90;;;;;;4988277;28;20040;-68
2023/02/17 03:50:42;;;;;;;61.08;38.72;;;9.60;99.90;;;;;;4971740;28;20050;-68
2023/02/17 03:53:09;;;;;;;55.65;36.70;;;9.70;99.90;;;;;;4969976;28;20066;-67
2023/02/17 03:55:35;;;;;;;57.58;36.03;;;9.60;99.90;;;;;;4973177;28;20042;-68
2023/02/17 03:58:00;;;;;;;52.45;34.65;;;9.70;99.90;;;;;;4972303;28;20077;-67
2023/02/17 04:00:26;;;;;;;50.45;34.33;;;9.60;99.90;;;;;;4966057;28;20038;-67
2023/02/17 04:02:52;;;;;;;44.45;30.95;;;9.60;99.90;;;;;;4953038;28;20065;-68
2023/02/17 04:05:18;;;;;;;50.42;33.67;;;9.60;99.90;;;;;;4985445;28;20053;-67
2023/02/17 04:07:43;;;;;;;44.83;31.48;;;9.60;99.90;;;;;;4991274;28;20675;-68
2023/02/17 04:10:09;;;;;;;45.45;32.28;;;9.60;99.90;;;;;;4992742;28;20042;-67
2023/02/17 04:12:35;;;;;;;45.30;31.10;;;9.60;99.90;;;;;;4990238;28;20172;-68
2023/02/17 04:15:01;;;;;;;40.40;28.58;;;9.60;99.90;;;;;;5009106;28;20053;-67
2023/02/17 04:17:26;;;;;;;43.17;28.58;;;9.50;99.90;;;;;;4985746;28;20061;-68
2023/02/17 04:19:52;;;;;;;44.10;29.50;;;9.60;99.90;;;;;;4988990;28;20108;-67
2023/02/17 04:22:18;;;;;;;38.28;28.35;;;9.50;99.90;;;;;;5011226;28;20577;-67
2023/02/17 04:24:43;;;;;;;36.55;25.45;;;9.50;99.90;;;;;;4989062;28;20041;-67
2023/02/17 04:27:09;;;;;;;38.10;27.00;;;9.50;99.90;;;;;;4989336;28;20045;-68
2023/02/17 04:29:35;;;;;;;39.50;26.65;;;9.50;99.90;;;;;;4992714;28;20105;-67
2023/02/17 04:32:01;;;;;;;36.75;25.50;;;9.50;99.90;;;;;;4992364;28;20096;-67
2023/02/17 04:34:26;;;;;;;36.38;25.48;;;9.50;99.90;;;;;;4992204;28;20038;-68
2023/02/17 04:36:52;;;;;;;36.22;25.67;;;9.40;99.90;;;;;;5010465;28;20137;-67
2023/02/17 04:39:18;;;;;;;40.10;25.85;;;9.40;99.90;;;;;;4989484;28;20046;-68
2023/02/17 04:41:43;;;;;;;37.75;25.83;;;9.40;99.90;;;;;;4988950;28;20069;-67
2023/02/17 04:44:09;;;;;;;36.53;25.52;;;9.40;99.90;;;;;;4992812;28;20378;-67
2023/02/17 04:46:35;;;;;;;37.22;25.65;;;9.40;99.90;;;;;;4990937;28;20046;-67
2023/02/17 04:49:01;;;;;;;41.33;26.25;;;9.30;99.90;;;;;;5010092;28;20177;-67
2023/02/17 04:51:26;;;;;;;39.65;26.02;;;9.30;99.90;;;;;;4992326;28;20536;-67
2023/02/17 04:53:52;;;;;;;40.33;26.60;;;9.30;99.90;;;;;;4991685;28;20042;-67
2023/02/17 04:56:18;;;;;;;40.63;26.05;;;9.30;99.90;;;;;;5010301;28;20095;-68
2023/02/17 04:58:43;;;;;;;39.65;25.77;;;9.30;99.90;;;;;;4990960;28;20045;-67
2023/02/17 05:01:09;;;;;;;44.72;28.98;;;9.30;99.90;;;;;;4992267;28;20498;-68
2023/02/17 05:03:35;;;;;;;45.88;28.67;;;9.20;99.90;;;;;;4991237;28;20046;-69
2023/02/17 05:06:01;;;;;;;52.05;30.13;;;9.20;99.90;;;;;;5009355;28;20046;-67
2023/02/17 05:08:26;;;;;;;53.50;30.95;;;9.20;99.90;;;;;;4976022;28;20049;-67
2023/02/17 05:10:52;;;;;;;42.22;28.00;;;9.20;99.90;;;;;;4992191;28;20034;-67
2023/02/17 05:13:18;;;;;;;50.38;30.50;;;9.20;99.90;;;;;;4991891;28;20038;-67
2023/02/17 05:15:45;;;;;;;56.97;32.55;;;9.20;99.90;;;;;;4992149;28;20383;-67
2023/02/17 05:18:12;;;;;;;55.58;30.60;;;9.10;99.90;;;;;;4991939;28;20125;-67
2023/02/17 05:20:38;;;;;;;54.38;34.03;;;9.10;99.90;;;;;;5009434;28;20049;-67
2023/02/17 05:23:03;;;;;;;52.42;31.40;;;9.10;99.90;;;;;;4991873;28;20107;-67
2023/02/17 05:25:30;;;;;;;54.67;33.50;;;9.10;99.90;;;;;;4991677;28;20037;-67
2023/02/17 05:27:56;;;;;;;56.03;34.35;;;9.10;99.90;;;;;;4993153;28;20589;-67
2023/02/17 05:30:22;;;;;;;60.50;34.92;;;9.10;99.90;;;;;;4995517;28;20041;-68
2023/02/17 05:32:47;;;;;;;53.25;32.25;;;9.00;99.90;;;;;;4995616;28;20048;-67
2023/02/17 05:35:13;;;;;;;53.83;33.90;;;9.00;99.90;;;;;;4995137;28;20030;-67
2023/02/17 05:37:39;;;;;;;55.17;34.13;;;9.00;99.90;;;;;;5012917;28;20096;-67
2023/02/17 05:40:06;;;;;;;59.67;36.25;;;9.00;99.90;;;;;;4989003;28;20051;-66
2023/02/17 05:42:31;;;;;;;64.57;36.90;;;9.00;99.90;;;;;;5012530;28;20086;-66
2023/02/17 05:44:57;;;;;;;62.70;36.45;;;9.10;99.90;;;;;;4994070;28;20117;-66
2023/02/17 05:47:23;;;;;;;57.30;33.47;;;9.10;99.90;;;;;;4994773;28;20119;-66
2023/02/17 05:49:49;;;;;;;62.78;37.08;;;9.10;99.90;;;;;;4994992;28;20037;-66
2023/02/17 05:52:17;;;;;;;59.40;35.33;;;9.00;99.90;;;;;;4995071;28;20541;-66
2023/02/17 05:54:43;;;;;;;59.90;34.78;;;9.00;99.90;;;;;;4994505;28;20192;-67
2023/02/17 05:57:08;;;;;;;62.25;35.40;;;9.00;99.90;;;;;;4995161;28;20043;-67
2023/02/17 05:59:34;;;;;;;60.97;34.03;;;9.00;99.90;;;;;;4994622;28;20060;-67
2023/02/17 06:02:00;;;;;;;53.13;31.77;;;9.00;99.90;;;;;;4994379;28;20045;-68
2023/02/17 06:04:25;;;;;;;58.53;32.92;;;9.10;99.90;;;;;;4994868;28;20049;-68
2023/02/17 06:06:51;;;;;;;57.22;33.40;;;9.10;99.90;;;;;;4994038;28;20171;-67
2023/02/17 06:09:17;;;;;;;55.38;34.00;;;9.10;99.90;;;;;;5009289;28;20029;-67
2023/02/17 06:11:43;;;;;;;64.10;35.65;;;9.10;99.90;;;;;;4994236;28;20052;-68
2023/02/17 06:14:09;;;;;;;60.70;35.20;;;9.20;99.90;;;;;;4993879;28;20127;-68
2023/02/17 06:16:34;;;;;;;61.00;32.78;;;9.20;99.90;;;;;;4994361;28;20044;-67
2023/02/17 06:19:01;;;;;;;59.13;32.85;;;9.20;99.90;;;;;;4994711;28;20029;-67
2023/02/17 06:21:27;;;;;;;59.78;33.83;;;9.20;99.90;;;;;;5007315;28;20121;-67
2023/02/17 06:23:53;;;;;;;64.30;33.67;;;9.20;99.90;;;;;;4993457;28;20055;-67
2023/02/17 06:26:19;;;;;;;65.40;34.90;;;9.20;99.90;;;;;;4994468;28;20046;-67
2023/02/17 06:28:45;;;;;;;59.67;35.42;;;9.20;99.90;;;;;;4993787;28;20409;-67
2023/02/17 06:31:10;;;;;;;62.65;34.17;;;9.20;99.90;;;;;;5010709;28;20034;-67
2023/02/17 06:33:36;;;;;;;63.00;32.45;;;9.30;99.90;;;;;;4994222;28;20068;-66
2023/02/17 06:36:02;;;;;;;62.13;33.22;;;9.30;99.90;;;;;;4990793;28;20049;-67
2023/02/17 06:38:28;;;;;;;56.42;31.25;;;9.30;99.90;;;;;;4992032;28;20092;-68
2023/02/17 06:40:53;;;;;;;64.47;34.08;;;9.30;99.90;;;;;;4991404;28;20116;-68
2023/02/17 06:43:20;;;;;;;59.58;33.03;;;9.30;99.90;;;;;;4992076;28;20052;-68
2023/02/17 06:45:46;;;;;;;57.58;32.58;;;9.30;99.90;;;;;;4990872;28;20045;-68
2023/02/17 06:48:11;;;;;;;63.90;33.70;;;9.30;99.90;;;;;;5009087;28;20034;-67
2023/02/17 06:50:37;;;;;;;65.43;31.48;;;9.40;99.90;;;;;;5008151;28;20105;-68
2023/02/17 06:53:03;;;;;;;70.15;34.40;;;9.40;99.90;;;;;;4989768;28;20064;-68
2023/02/17 06:55:29;;;;;;;63.70;31.92;;;9.40;99.90;;;;;;4997216;28;20050;-66
2023/02/17 06:57:55;;;;;;;65.50;31.58;;;9.40;99.90;;;;;;5008018;28;20447;-66
2023/02/17 07:00:21;;;;;;;68.80;32.58;;;9.40;99.90;;;;;;4990194;28;20042;-69
2023/02/17 07:02:47;;;;;;;63.05;34.00;;;9.40;99.90;;;;;;4990060;28;20137;-69
2023/02/17 07:05:13;;;;;;;57.28;32.50;;;9.50;99.90;;;;;;4989530;28;20136;-69
2023/02/17 07:07:38;;;;;;;56.70;29.30;;;9.50;99.90;;;;;;4976158;28;20076;-69
2023/02/17 07:10:05;;;;;;;57.80;30.80;;;9.60;99.90;;;;;;4990628;28;20038;-70
2023/02/17 07:12:31;;;;;;;52.70;29.77;;;9.60;99.90;;;;;;4977778;28;20139;-70
2023/02/17 07:14:56;;;;;;;58.08;31.20;;;9.60;99.90;;;;;;4992989;28;20077;-70
2023/02/17 07:17:22;;;;;;;50.33;28.92;;;9.60;99.90;;;;;;4993072;28;20045;-69
2023/02/17 07:19:48;;;;;;;50.88;30.70;;;9.60;99.90;;;;;;4992355;28;20354;-69
2023/02/17 07:22:14;;;;;;;62.63;31.90;;;9.60;99.90;;;;;;4993239;28;20042;-70
2023/02/17 07:24:39;;;;;;;54.63;31.60;;;9.60;99.90;;;;;;4991775;28;20097;-69
2023/02/17 07:27:07;;;;;;;57.72;29.88;;;9.70;99.90;;;;;;4993104;28;20037;-69
2023/02/17 07:29:33;;;;;;;53.83;31.52;;;9.70;99.90;;;;;;4988417;28;20589;-69
2023/02/17 07:31:59;;;;;;;55.30;31.60;;;9.70;99.90;;;;;;5011511;28;20482;-69
2023/02/17 07:34:25;;;;;;;60.70;32.30;;;9.70;99.90;;;;;;4992235;28;20121;-69
2023/02/17 07:36:50;;;;;;;59.08;32.13;;;9.70;99.90;;;;;;4973840;28;20045;-69
2023/02/17 07:39:16;;;;;;;51.90;30.70;;;9.80;99.90;;;;;;5009972;28;20169;-69
2023/02/17 07:41:42;;;;;;;52.88;31.40;;;9.80;99.90;;;;;;4992995;28;20100;-68
2023/02/17 07:44:08;;;;;;;49.90;29.67;;;9.80;99.90;;;;;;5008172;28;20081;-68
2023/02/17 07:46:35;;;;;;;57.53;29.73;;;9.80;99.90;;;;;;4991861;28;20069;-70
2023/02/17 07:49:00;;;;;;;48.90;29.30;;;9.80;99.90;;;;;;5009991;28;20038;-70
2023/02/17 07:51:26;;;;;;;55.08;29.38;;;9.90;99.90;;;;;;4991837;28;20544;-69
2023/02/17 07:53:52;;;;;;;51.83;29.25;;;9.90;99.90;;;;;;4992029;28;20067;-69
2023/02/17 07:56:20;;;;;;;55.60;30.65;;;9.90;99.90;;;;;;4992695;28;20042;-70
2023/02/17 07:58:46;;;;;;;56.53;27.73;;;9.90;99.90;;;;;;4992721;28;20336;-72
2023/02/17 08:01:21;;;;;;;51.40;28.48;;;9.90;99.90;;;;;;4992416;28;20042;-69
2023/02/17 08:03:48;;;;;;;48.10;30.13;;;10.00;99.90;;;;;;4991482;28;20153;-70
2023/02/17 08:06:20;;;;;;;48.53;28.35;;;10.00;99.90;;;;;;4988911;28;20045;-69
2023/02/17 08:14:15;;;;;;;43.72;25.60;;;10.00;99.90;;;;;;4990251;28;20069;-70
2023/02/17 08:16:41;;;;;;;46.13;27.10;;;10.10;99.90;;;;;;5004375;28;20042;-70
2023/02/17 08:19:07;;;;;;;45.30;25.52;;;10.10;99.90;;;;;;4993060;28;20489;-70
2023/02/17 08:21:33;;;;;;;51.42;27.38;;;10.10;99.90;;;;;;4991211;28;20050;-70
2023/02/17 08:23:59;;;;;;;46.67;26.15;;;10.10;99.90;;;;;;5009937;28;20724;-69
2023/02/17 08:26:25;;;;;;;37.42;24.00;;;10.20;99.90;;;;;;4990631;28;20041;-69
2023/02/17 08:28:51;;;;;;;41.58;24.98;;;10.20;99.90;;;;;;5010342;28;20457;-70
2023/02/17 08:31:22;;;;;;;38.63;25.55;;;10.20;99.90;;;;;;4991287;28;20042;-69
2023/02/17 08:33:47;;;;;;;45.97;26.17;;;10.30;99.90;;;;;;4989010;28;20049;-69
2023/02/17 08:36:13;;;;;;;43.22;25.27;;;10.30;99.90;;;;;;4990949;28;20457;-69
2023/02/17 08:38:40;;;;;;;42.25;23.38;;;10.30;99.90;;;;;;4991803;28;20122;-69
2023/02/17 08:41:27;;;;;;;38.00;25.45;;;10.40;99.90;;;;;;4975494;28;20061;-70
2023/02/17 08:43:53;;;;;;;39.50;25.02;;;10.40;99.90;;;;;;4991892;28;20046;-67
2023/02/17 08:46:19;;;;;;;39.78;23.92;;;10.40;99.90;;;;;;5010008;28;20044;-66
2023/02/17 08:48:45;;;;;;;37.42;22.73;;;10.40;99.90;;;;;;4976705;28;20553;-67
2023/02/17 08:51:16;;;;;;;30.42;21.83;;;10.50;99.90;;;;;;4990372;28;20045;-67
2023/02/17 08:53:44;;;;;;;32.20;21.20;;;10.50;99.90;;;;;;4990208;28;20049;-66
2023/02/17 08:56:10;;;;;;;29.75;20.02;;;10.50;99.90;;;;;;4991064;28;20038;-67
2023/02/17 08:58:36;;;;;;;29.27;20.13;;;10.60;99.90;;;;;;4992129;28;20046;-67
2023/02/17 09:01:02;;;;;;;27.73;18.67;;;10.60;99.90;;;;;;5007857;28;20042;-67
2023/02/17 09:03:29;;;;;;;31.08;20.67;;;10.70;99.90;;;;;;5011231;28;20088;-67
2023/02/17 09:05:58;;;;;;;27.50;18.30;;;10.70;99.90;;;;;;5011909;28;20082;-66
2023/02/17 09:08:24;;;;;;;26.27;18.08;;;10.70;99.90;;;;;;5012308;28;20037;-67
2023/02/17 09:10:50;;;;;;;26.27;16.52;;;10.70;99.90;;;;;;4995315;28;20542;-67
2023/02/17 09:13:17;;;;;;;22.70;16.73;;;10.70;99.90;;;;;;5013914;28;20077;-67
2023/02/17 09:15:43;;;;;;;24.77;16.90;;;10.80;99.90;;;;;;5009690;28;20044;-66
2023/02/17 09:18:09;;;;;;;21.48;15.32;;;10.80;99.90;;;;;;4995287;28;20041;-67
2023/02/17 09:20:36;;;;;;;21.02;15.32;;;10.80;99.90;;;;;;4978602;28;20111;-66
2023/02/17 09:23:02;;;;;;;22.45;14.98;;;10.80;99.90;;;;;;5011904;28;20548;-67
2023/02/17 09:25:28;;;;;;;23.85;15.70;;;10.90;99.90;;;;;;4995750;28;20045;-67
2023/02/17 09:27:54;;;;;;;20.60;13.95;;;10.90;99.90;;;;;;5013982;28;20033;-66
2023/02/17 09:30:20;;;;;;;20.23;13.50;;;10.90;99.90;;;;;;4996195;28;20050;-66
2023/02/17 09:32:45;;;;;;;27.67;18.88;;;10.90;99.90;;;;;;4996277;28;20081;-66
2023/02/17 09:35:16;;;;;;;18.40;12.05;;;11.00;99.90;;;;;;4993971;28;20037;-67
2023/02/17 09:37:42;;;;;;;18.58;11.38;;;11.00;99.90;;;;;;4995443;28;20046;-67
2023/02/17 09:40:14;;;;;;;19.42;11.25;;;11.00;99.90;;;;;;5012424;28;20108;-67
2023/02/17 09:42:40;;;;;;;17.98;10.75;;;11.00;99.90;;;;;;5013082;28;20030;-69
2023/02/17 09:45:15;;;;;;;18.17;10.75;;;11.00;99.90;;;;;;4994826;28;20540;-66
2023/02/17 09:47:46;;;;;;;;;;;11.10;99.90;;;;;;5012936;28;20042;-67
2023/02/17 09:50:20;;;;;;;18.92;10.02;;;11.10;99.90;;;;;;5011936;28;20012;-67
2023/02/17 09:52:52;;;;;;;14.18;8.05;;;11.10;99.90;;;;;;4993973;28;20133;-67
2023/02/17 09:55:39;;;;;;;15.13;8.90;;;11.10;99.90;;;;;;4995300;28;20044;-67
2023/02/17 09:58:10;;;;;;;14.07;9.13;;;11.10;99.90;;;;;;4996996;28;20050;-67
2023/02/17 10:01:03;;;;;;;17.05;8.63;;;11.10;99.90;;;;;;4978501;28;20042;-66
2023/02/17 10:03:41;;;;;;;15.40;8.10;;;11.10;99.90;;;;;;5012507;28;20050;-67
2023/02/17 10:06:37;;;;;;;15.68;8.52;;;11.10;99.90;;;;;;5011698;28;20054;-66
2023/02/17 10:09:23;;;;;;;13.98;8.23;;;11.20;99.90;;;;;;4994001;28;20441;-68
2023/02/17 10:12:12;;;;;;;12.32;7.57;;;11.20;99.90;;;;;;4992586;28;20520;-68
2023/02/17 10:14:47;;;;;;;14.60;8.18;;;11.20;99.90;;;;;;5012273;28;20033;-66
2023/02/17 10:17:26;;;;;;;12.90;7.45;;;11.10;99.90;;;;;;5008892;28;20034;-67
2023/02/17 10:20:08;;;;;;;13.30;7.45;;;11.20;99.90;;;;;;4993845;28;20041;-68
2023/02/17 10:22:34;;;;;;;11.80;7.43;;;11.20;99.90;;;;;;4994792;28;20046;-66
2023/02/17 10:25:02;;;;;;;17.05;7.25;;;11.20;99.90;;;;;;5009949;28;20050;-67
2023/02/17 10:27:50;;;;;;;12.88;6.95;;;11.30;99.90;;;;;;4994520;28;20046;-67
2023/02/17 10:30:23;;;;;;;12.90;6.78;;;11.20;99.90;;;;;;5011419;28;20041;-66
2023/02/17 10:33:11;;;;;;;14.63;6.90;;;11.30;99.90;;;;;;4994485;28;20449;-67
2023/02/17 10:35:51;;;;;;;12.27;6.80;;;11.30;99.90;;;;;;4976849;28;20058;-67
2023/02/17 10:38:35;;;;;;;13.07;5.57;;;11.30;99.90;;;;;;4985863;28;20038;-67
2023/02/17 10:41:04;;;;;;;8.02;5.45;;;11.30;99.90;;;;;;5012374;28;20046;-67
2023/02/17 10:43:32;;;;;;;9.48;5.95;;;11.30;99.90;;;;;;5011244;28;20398;-67
2023/02/17 10:46:02;;;;;;;15.50;6.03;;;11.30;99.90;;;;;;4992578;28;20034;-67
2023/02/17 10:48:32;;;;;;;12.45;5.93;;;11.30;99.90;;;;;;5004390;28;20034;-68
2023/02/17 10:51:00;;;;;;;9.80;5.13;;;11.30;99.90;;;;;;4994551;28;20030;-67
2023/02/17 10:53:35;;;;;;;9.23;4.47;;;11.20;99.90;;;;;;5011136;28;20050;-67
2023/02/17 10:56:13;;;;;;;9.45;4.60;;;11.30;99.90;;;;;;5012470;28;20038;-67
2023/02/17 10:58:45;;;;;;;9.20;4.68;;;11.30;99.90;;;;;;4995157;28;20058;-67
2023/02/17 11:01:12;;;;;;;8.30;4.25;;;11.30;99.90;;;;;;4994213;28;20077;-67
2023/02/17 11:03:39;;;;;;;11.90;4.78;;;11.30;99.90;;;;;;4992881;28;20525;-67
2023/02/17 11:06:21;;;;;;;8.93;4.85;;;11.30;99.90;;;;;;5010640;28;20050;-67
2023/02/17 11:08:54;;;;;;;6.07;4.05;;;11.30;99.90;;;;;;5004736;28;20494;-67
2023/02/17 11:11:23;;;;;;;10.35;4.57;;;11.30;99.90;;;;;;5011973;28;20482;-67
2023/02/17 11:14:08;;;;;;;11.65;5.00;;;11.30;99.90;;;;;;4993104;28;20437;-66
2023/02/17 11:16:44;;;;;;;8.57;4.55;;;11.30;99.90;;;;;;4993351;28;20041;-67
2023/02/17 11:19:39;;;;;;;7.90;4.35;;;11.30;99.90;;;;;;5012263;28;20034;-67
2023/02/17 11:22:25;;;;;;;10.38;4.80;;;11.40;99.90;;;;;;5000057;28;20050;-67
2023/02/17 11:25:04;;;;;;;11.23;4.80;;;11.30;99.90;;;;;;5010799;28;20042;-67
2023/02/17 11:27:29;;;;;;;10.15;4.57;;;11.30;99.90;;;;;;5011381;28;20061;-69
2023/02/17 11:30:13;;;;;;;10.38;4.38;;;11.30;99.90;;;;;;5011756;28;20044;-69
2023/02/17 11:32:39;;;;;;;13.20;4.70;;;11.30;99.90;;;;;;5012563;28;20125;-69
2023/02/17 11:35:45;;;;;;;10.63;4.25;;;11.30;99.90;;;;;;5011361;28;20514;-69
2023/02/17 11:38:23;;;;;;;12.63;4.30;;;11.30;99.90;;;;;;4993871;28;20045;-69
2023/02/17 11:40:58;;;;;;;9.02;4.18;;;11.30;99.90;;;;;;5011244;28;20405;-70
2023/02/17 11:43:24;;;;;;;10.90;4.65;;;11.20;99.90;;;;;;5010678;28;20033;-67
2023/02/17 11:46:20;;;;;;;14.27;4.25;;;11.20;99.90;;;;;;4992653;28;20132;-67
2023/02/17 11:48:58;;;;;;;12.43;4.53;;;11.20;99.90;;;;;;5010492;28;20089;-67
2023/02/17 11:51:51;;;;;;;10.23;5.38;;;11.20;99.90;;;;;;4976835;28;20061;-67
2023/02/17 11:54:44;;;;;;;11.32;4.47;;;11.20;99.90;;;;;;5011450;28;20038;-70
2023/02/17 11:57:44;;;;;;;9.55;3.85;;;11.20;99.90;;;;;;4995307;28;20045;-70
2023/02/17 12:00:26;;;;;;;11.27;3.97;;;11.20;99.90;;;;;;5012106;28;20119;-70
2023/02/17 12:03:13;;;;;;;12.20;4.40;;;11.20;99.90;;;;;;5012280;28;20046;-70
2023/02/17 12:05:57;;;;;;;12.57;4.05;;;11.20;99.90;;;;;;4977737;28;20042;-70
2023/02/17 12:08:49;;;;;;;12.43;3.33;;;11.20;99.90;;;;;;4993391;28;20045;-69
2023/02/17 12:11:17;;;;;;;9.73;3.80;;;11.20;99.90;;;;;;4994128;28;20124;-70
2023/02/17 12:14:37;;;;;;;10.15;3.95;;;11.10;99.90;;;;;;5011728;28;20034;-70
2023/02/17 12:17:11;;;;;;;13.30;3.97;;;11.20;99.90;;;;;;4949503;28;20043;-70
2023/02/17 12:20:07;;;;;;;10.27;3.97;;;11.20;99.90;;;;;;4966624;28;20309;-70
2023/02/17 12:22:45;;;;;;;11.63;3.92;;;11.20;99.90;;;;;;5000489;28;20058;-70
2023/02/17 12:25:30;;;;;;;9.88;4.10;;;11.20;99.90;;;;;;4995204;28;20050;-70
2023/02/17 12:28:04;;;;;;;9.95;4.18;;;11.20;99.90;;;;;;5010839;28;20359;-69
2023/02/17 12:30:55;;;;;;;12.30;4.03;;;11.20;99.90;;;;;;5012109;28;20034;-70
2023/02/17 12:33:46;;;;;;;8.43;3.72;;;11.30;99.90;;;;;;4993200;28;20050;-70
2023/02/17 12:36:15;;;;;;;12.95;3.85;;;11.30;99.90;;;;;;5000757;28;20191;-70
2023/02/17 12:38:45;;;;;;;13.50;4.10;;;11.30;99.90;;;;;;4995281;28;20050;-70
2023/02/17 12:41:19;;;;;;;10.70;3.33;;;11.30;99.90;;;;;;5000303;28;20052;-70
2023/02/17 12:43:52;;;;;;;15.75;4.13;;;11.30;99.90;;;;;;5014336;28;20037;-70
2023/02/17 12:46:33;;;;;;;9.15;4.00;;;11.40;99.90;;;;;;5007433;28;20041;-71
2023/02/17 12:49:15;;;;;;;12.13;4.13;;;11.40;99.90;;;;;;4999323;28;20038;-70
2023/02/17 12:52:00;;;;;;;10.95;4.07;;;11.50;99.90;;;;;;5015713;28;20033;-71
2023/02/17 12:54:40;;;;;;;9.65;4.30;;;11.60;99.90;;;;;;4997142;28;20046;-70
2023/02/17 12:57:09;;;;;;;10.02;3.13;;;11.70;99.90;;;;;;5015676;28;20049;-71
2023/02/17 12:59:38;;;;;;;11.40;3.40;;;11.60;99.90;;;;;;4991141;28;20046;-71